createdAt,value
2019-01-19T00:00:22.731Z,0.00
2019-01-19T00:01:22.735Z,0.00
2019-01-19T00:02:22.747Z,0.00
2019-01-19T00:03:22.706Z,0.00
2019-01-19T00:04:25.686Z,0.00
2019-01-19T00:05:22.687Z,0.00
2019-01-19T00:06:22.659Z,0.00
2019-01-19T00:07:22.680Z,0.00
2019-01-19T00:08:22.641Z,0.00
2019-01-19T00:09:22.628Z,0.00
2019-01-19T00:10:22.616Z,0.00
2019-01-19T00:11:22.623Z,0.00
2019-01-19T00:12:22.683Z,0.00
2019-01-19T00:13:22.599Z,0.00
2019-01-19T00:14:22.656Z,0.00
2019-01-19T00:15:22.563Z,0.00
2019-01-19T00:16:22.564Z,0.00
2019-01-19T00:17:22.633Z,0.00
2019-01-19T00:18:23.043Z,0.00
2019-01-19T00:19:22.565Z,0.00
2019-01-19T00:20:22.547Z,0.00
2019-01-19T00:21:22.528Z,0.00
2019-01-19T00:22:22.575Z,0.00
2019-01-19T00:23:22.510Z,0.00
2019-01-19T00:24:22.498Z,0.00
2019-01-19T00:25:22.483Z,0.00
2019-01-19T00:26:22.476Z,0.00
2019-01-19T00:27:22.536Z,0.00
2019-01-19T00:28:22.428Z,0.00
2019-01-19T00:29:22.430Z,0.00
2019-01-19T00:30:22.420Z,0.00
2019-01-19T00:31:22.387Z,0.00
2019-01-19T00:32:22.405Z,0.00
2019-01-19T00:33:22.375Z,0.00
2019-01-19T00:34:22.356Z,0.00
2019-01-19T00:35:22.352Z,0.00
2019-01-19T00:36:22.329Z,0.00
2019-01-19T00:37:22.347Z,0.00
2019-01-19T00:38:22.314Z,0.00
2019-01-19T00:39:22.300Z,0.00
2019-01-19T00:40:22.289Z,0.00
2019-01-19T00:41:22.272Z,0.00
2019-01-19T00:42:22.293Z,0.00
2019-01-19T00:43:22.269Z,0.00
2019-01-19T00:44:22.242Z,0.00
2019-01-19T00:45:22.233Z,0.00
2019-01-19T00:46:22.227Z,0.00
2019-01-19T00:47:22.243Z,0.00
2019-01-19T00:48:22.228Z,0.00
2019-01-19T00:49:22.188Z,0.00
2019-01-19T00:50:22.180Z,0.00
2019-01-19T00:51:22.261Z,0.00
2019-01-19T00:52:22.507Z,0.00
2019-01-19T00:53:22.143Z,0.00
2019-01-19T00:54:22.139Z,0.00
2019-01-19T00:55:22.125Z,0.00
2019-01-19T00:56:22.112Z,0.00
2019-01-19T00:57:22.144Z,0.00
2019-01-19T00:58:22.098Z,0.00
2019-01-19T00:59:22.079Z,0.00
2019-01-19T01:00:22.109Z,0.00
2019-01-19T01:01:22.057Z,0.00
2019-01-19T01:02:22.070Z,0.00
2019-01-19T01:03:22.035Z,0.00
2019-01-19T01:04:22.030Z,0.00
2019-01-19T01:05:25.479Z,0.00
2019-01-19T01:06:23.684Z,0.00
2019-01-19T01:07:21.986Z,0.00
2019-01-19T01:08:22.005Z,0.00
2019-01-19T01:09:21.972Z,0.00
2019-01-19T01:10:21.956Z,0.00
2019-01-19T01:11:21.944Z,0.00
2019-01-19T01:12:22.064Z,0.00
2019-01-19T01:13:21.927Z,0.00
2019-01-19T01:14:21.931Z,0.00
2019-01-19T01:15:21.901Z,0.00
2019-01-19T01:16:21.887Z,0.00
2019-01-19T01:17:21.923Z,0.00
2019-01-19T01:18:21.910Z,0.00
2019-01-19T01:19:21.893Z,0.00
2019-01-19T01:20:21.931Z,0.00
2019-01-19T01:21:21.887Z,0.00
2019-01-19T01:22:21.863Z,0.00
2019-01-19T01:23:21.917Z,0.00
2019-01-19T01:24:21.830Z,0.00
2019-01-19T01:25:21.881Z,0.00
2019-01-19T01:26:21.824Z,0.00
2019-01-19T01:27:21.817Z,0.00
2019-01-19T01:28:21.824Z,0.00
2019-01-19T01:29:21.751Z,0.00
2019-01-19T01:30:21.747Z,0.00
2019-01-19T01:31:21.734Z,0.00
2019-01-19T01:32:21.718Z,0.00
2019-01-19T01:33:21.783Z,0.00
2019-01-19T01:34:21.696Z,0.00
2019-01-19T01:35:21.684Z,0.00
2019-01-19T01:36:21.667Z,0.00
2019-01-19T01:37:21.774Z,0.00
2019-01-19T01:38:21.688Z,0.00
2019-01-19T01:39:21.644Z,0.00
2019-01-19T01:40:21.620Z,0.00
2019-01-19T01:41:21.646Z,0.00
2019-01-19T01:42:21.600Z,0.00
2019-01-19T01:43:21.645Z,0.00
2019-01-19T01:44:21.645Z,0.00
2019-01-19T01:45:21.565Z,0.00
2019-01-19T01:46:21.558Z,0.00
2019-01-19T01:47:21.563Z,0.00
2019-01-19T01:48:21.569Z,0.00
2019-01-19T01:49:21.581Z,0.00
2019-01-19T01:50:21.529Z,0.00
2019-01-19T01:51:21.513Z,0.00
2019-01-19T01:52:21.494Z,0.00
2019-01-19T01:53:21.505Z,0.00
2019-01-19T01:54:21.475Z,0.00
2019-01-19T01:55:21.463Z,0.00
2019-01-19T01:56:21.445Z,0.00
2019-01-19T01:57:21.437Z,0.00
2019-01-19T01:58:21.459Z,0.00
2019-01-19T01:59:21.414Z,0.00
2019-01-19T02:00:21.412Z,0.00
2019-01-19T02:01:21.432Z,0.00
2019-01-19T02:02:21.434Z,0.00
2019-01-19T02:03:21.403Z,0.00
2019-01-19T02:04:21.364Z,0.00
2019-01-19T02:05:21.385Z,0.00
2019-01-19T02:06:21.340Z,0.00
2019-01-19T02:07:21.337Z,0.00
2019-01-19T02:08:21.348Z,0.00
2019-01-19T02:09:21.303Z,0.00
2019-01-19T02:10:21.878Z,0.00
2019-01-19T02:11:21.295Z,0.00
2019-01-19T02:12:21.270Z,0.00
2019-01-19T02:13:21.321Z,0.00
2019-01-19T02:14:21.262Z,0.00
2019-01-19T02:15:21.240Z,0.00
2019-01-19T02:16:21.231Z,0.00
2019-01-19T02:17:21.256Z,0.00
2019-01-19T02:18:21.303Z,0.00
2019-01-19T02:19:21.828Z,0.00
2019-01-19T02:20:21.213Z,0.00
2019-01-19T02:21:21.241Z,0.00
2019-01-19T02:22:21.199Z,0.00
2019-01-19T02:23:21.246Z,0.00
2019-01-19T02:24:21.173Z,0.00
2019-01-19T02:25:21.163Z,0.00
2019-01-19T02:26:21.146Z,0.00
2019-01-19T02:27:21.145Z,0.00
2019-01-19T02:28:21.120Z,0.00
2019-01-19T02:29:21.086Z,0.00
2019-01-19T02:30:21.076Z,0.00
2019-01-19T02:31:21.079Z,0.00
2019-01-19T02:32:21.066Z,0.00
2019-01-19T02:33:21.065Z,0.00
2019-01-19T02:34:21.040Z,0.00
2019-01-19T02:35:21.034Z,0.00
2019-01-19T02:36:21.012Z,0.00
2019-01-19T02:37:21.008Z,0.00
2019-01-19T02:38:20.995Z,0.00
2019-01-19T02:39:20.970Z,0.00
2019-01-19T02:40:20.963Z,0.00
2019-01-19T02:41:20.955Z,0.00
2019-01-19T02:42:20.940Z,0.00
2019-01-19T02:43:20.988Z,0.00
2019-01-19T02:44:20.933Z,0.00
2019-01-19T02:45:20.910Z,0.00
2019-01-19T02:46:20.892Z,0.00
2019-01-19T02:47:20.881Z,0.00
2019-01-19T02:48:20.871Z,0.00
2019-01-19T02:49:20.963Z,0.00
2019-01-19T02:50:20.851Z,0.00
2019-01-19T02:51:20.844Z,0.00
2019-01-19T02:52:20.840Z,0.00
2019-01-19T02:53:20.828Z,0.00
2019-01-19T02:54:20.811Z,0.00
2019-01-19T02:55:20.799Z,0.00
2019-01-19T02:56:20.792Z,0.00
2019-01-19T02:57:20.771Z,0.00
2019-01-19T02:58:20.767Z,0.00
2019-01-19T02:59:20.785Z,0.00
2019-01-19T03:00:20.754Z,0.00
2019-01-19T03:01:20.726Z,0.00
2019-01-19T03:02:20.729Z,0.00
2019-01-19T03:03:20.716Z,0.00
2019-01-19T03:04:20.720Z,0.00
2019-01-19T03:05:20.691Z,0.00
2019-01-19T03:06:20.674Z,0.00
2019-01-19T03:07:20.667Z,0.00
2019-01-19T03:08:20.649Z,0.00
2019-01-19T03:09:20.697Z,0.00
2019-01-19T03:10:20.630Z,0.00
2019-01-19T03:11:20.632Z,0.00
2019-01-19T03:12:20.653Z,0.00
2019-01-19T03:13:20.616Z,0.00
2019-01-19T03:14:20.626Z,0.00
2019-01-19T03:15:20.582Z,0.00
2019-01-19T03:16:20.584Z,0.00
2019-01-19T03:17:20.589Z,0.00
2019-01-19T03:18:20.607Z,0.00
2019-01-19T03:19:20.668Z,0.00
2019-01-19T03:20:20.550Z,0.00
2019-01-19T03:21:20.543Z,0.00
2019-01-19T03:22:20.530Z,0.00
2019-01-19T03:23:20.526Z,0.00
2019-01-19T03:24:20.592Z,0.00
2019-01-19T03:25:20.494Z,0.00
2019-01-19T03:26:20.487Z,0.00
2019-01-19T03:27:20.478Z,0.00
2019-01-19T03:28:20.432Z,0.00
2019-01-19T03:29:20.442Z,0.00
2019-01-19T03:30:20.462Z,0.00
2019-01-19T03:31:20.431Z,0.00
2019-01-19T03:32:20.463Z,0.00
2019-01-19T03:33:20.385Z,0.00
2019-01-19T03:34:20.394Z,0.00
2019-01-19T03:35:20.354Z,0.00
2019-01-19T03:36:20.345Z,0.00
2019-01-19T03:37:20.350Z,0.00
2019-01-19T03:38:20.328Z,0.00
2019-01-19T03:39:20.339Z,0.00
2019-01-19T03:40:20.321Z,0.00
2019-01-19T03:41:20.291Z,0.00
2019-01-19T03:42:20.276Z,0.00
2019-01-19T03:43:20.263Z,0.00
2019-01-19T03:44:20.336Z,0.00
2019-01-19T03:45:20.273Z,0.00
2019-01-19T03:46:20.241Z,0.00
2019-01-19T03:47:20.232Z,0.00
2019-01-19T03:48:20.212Z,0.00
2019-01-19T03:49:20.241Z,0.00
2019-01-19T03:50:20.275Z,0.00
2019-01-19T03:51:20.174Z,0.00
2019-01-19T03:52:20.166Z,0.00
2019-01-19T03:53:20.160Z,0.00
2019-01-19T03:54:20.180Z,0.00
2019-01-19T03:55:20.196Z,0.00
2019-01-19T03:56:20.116Z,0.00
2019-01-19T03:57:20.111Z,0.00
2019-01-19T03:58:20.106Z,0.00
2019-01-19T03:59:20.110Z,0.00
2019-01-19T04:00:20.107Z,0.00
2019-01-19T04:01:20.074Z,0.00
2019-01-19T04:02:20.054Z,0.00
2019-01-19T04:03:20.047Z,0.00
2019-01-19T04:04:20.104Z,0.00
2019-01-19T04:05:20.028Z,0.00
2019-01-19T04:06:20.015Z,0.00
2019-01-19T04:07:20.007Z,0.00
2019-01-19T04:08:19.991Z,0.00
2019-01-19T04:09:20.084Z,0.00
2019-01-19T04:10:19.970Z,0.00
2019-01-19T04:11:19.969Z,0.00
2019-01-19T04:12:19.974Z,0.00
2019-01-19T04:13:19.946Z,0.00
2019-01-19T04:14:19.955Z,0.00
2019-01-19T04:15:19.948Z,0.00
2019-01-19T04:16:19.896Z,0.00
2019-01-19T04:17:19.972Z,0.00
2019-01-19T04:18:19.926Z,0.00
2019-01-19T04:19:19.956Z,0.00
2019-01-19T04:20:20.065Z,0.00
2019-01-19T04:21:19.873Z,0.00
2019-01-19T04:22:19.917Z,0.00
2019-01-19T04:23:19.862Z,0.00
2019-01-19T04:24:19.877Z,0.00
2019-01-19T04:25:19.830Z,0.00
2019-01-19T04:26:19.819Z,0.00
2019-01-19T04:27:19.815Z,0.00
2019-01-19T04:28:19.778Z,0.00
2019-01-19T04:29:19.964Z,0.00
2019-01-19T04:30:19.751Z,0.00
2019-01-19T04:31:19.741Z,0.00
2019-01-19T04:32:24.797Z,0.00
2019-01-19T04:33:19.709Z,0.00
2019-01-19T04:34:19.698Z,0.00
2019-01-19T04:35:19.787Z,0.00
2019-01-19T04:36:21.744Z,0.00
2019-01-19T04:37:20.088Z,0.00
2019-01-19T04:38:19.653Z,0.00
2019-01-19T04:39:19.641Z,0.00
2019-01-19T04:40:21.109Z,0.00
2019-01-19T04:41:19.623Z,0.00
2019-01-19T04:42:19.617Z,0.00
2019-01-19T04:43:19.599Z,0.00
2019-01-19T04:44:19.586Z,0.00
2019-01-19T04:45:19.609Z,0.00
2019-01-19T04:46:19.581Z,0.00
2019-01-19T04:47:19.565Z,0.00
2019-01-19T04:48:19.547Z,0.00
2019-01-19T04:49:20.125Z,0.00
2019-01-19T04:50:19.547Z,0.00
2019-01-19T04:51:19.530Z,0.00
2019-01-19T04:52:19.500Z,0.00
2019-01-19T04:53:19.491Z,0.00
2019-01-19T04:54:19.512Z,0.00
2019-01-19T04:55:19.529Z,0.00
2019-01-19T04:56:19.461Z,0.00
2019-01-19T04:57:19.504Z,0.00
2019-01-19T04:58:19.441Z,0.00
2019-01-19T04:59:19.423Z,0.00
2019-01-19T05:00:19.441Z,0.00
2019-01-19T05:01:19.416Z,0.00
2019-01-19T05:02:19.384Z,0.00
2019-01-19T05:03:19.373Z,0.00
2019-01-19T05:04:19.376Z,0.00
2019-01-19T05:05:19.421Z,0.00
2019-01-19T05:06:20.429Z,0.00
2019-01-19T05:07:19.334Z,0.00
2019-01-19T05:08:19.325Z,0.00
2019-01-19T05:09:19.315Z,0.00
2019-01-19T05:10:19.359Z,0.00
2019-01-19T05:11:19.288Z,0.00
2019-01-19T05:12:19.277Z,0.00
2019-01-19T05:13:19.272Z,0.00
2019-01-19T05:14:19.283Z,0.00
2019-01-19T05:15:19.273Z,0.00
2019-01-19T05:16:19.236Z,0.00
2019-01-19T05:17:19.358Z,0.00
2019-01-19T05:18:19.297Z,0.00
2019-01-19T05:19:19.243Z,0.00
2019-01-19T05:20:19.325Z,0.00
2019-01-19T05:21:19.252Z,0.00
2019-01-19T05:22:19.229Z,0.00
2019-01-19T05:23:19.203Z,0.00
2019-01-19T05:24:19.191Z,0.00
2019-01-19T05:25:19.246Z,0.00
2019-01-19T05:26:19.162Z,0.00
2019-01-19T05:27:19.146Z,0.00
2019-01-19T05:28:19.109Z,0.00
2019-01-19T05:29:19.089Z,0.00
2019-01-19T05:30:19.430Z,0.00
2019-01-19T05:31:19.105Z,0.00
2019-01-19T05:32:19.072Z,0.00
2019-01-19T05:33:19.047Z,0.00
2019-01-19T05:34:19.037Z,0.00
2019-01-19T05:35:19.056Z,0.00
2019-01-19T05:36:19.021Z,0.00
2019-01-19T05:37:19.003Z,0.00
2019-01-19T05:38:19.010Z,0.00
2019-01-19T05:39:18.986Z,0.00
2019-01-19T05:40:19.038Z,0.00
2019-01-19T05:41:18.964Z,0.00
2019-01-19T05:42:18.962Z,0.00
2019-01-19T05:43:18.959Z,0.00
2019-01-19T05:44:18.932Z,0.00
2019-01-19T05:45:18.946Z,0.00
2019-01-19T05:46:21.488Z,0.00
2019-01-19T05:47:18.893Z,0.00
2019-01-19T05:48:18.890Z,0.00
2019-01-19T05:49:18.867Z,0.00
2019-01-19T05:50:18.862Z,0.00
2019-01-19T05:51:18.882Z,0.00
2019-01-19T05:52:18.841Z,0.00
2019-01-19T05:53:18.835Z,0.00
2019-01-19T05:54:18.809Z,0.00
2019-01-19T05:55:18.806Z,0.00
2019-01-19T05:56:18.820Z,0.00
2019-01-19T05:57:18.827Z,0.00
2019-01-19T05:58:18.784Z,0.00
2019-01-19T05:59:18.809Z,0.00
2019-01-19T06:00:18.756Z,0.00
2019-01-19T06:01:18.777Z,0.00
2019-01-19T06:02:18.769Z,0.00
2019-01-19T06:03:18.716Z,0.00
2019-01-19T06:04:18.749Z,0.00
2019-01-19T06:05:18.692Z,0.00
2019-01-19T06:06:18.709Z,0.00
2019-01-19T06:07:18.670Z,0.00
2019-01-19T06:08:18.662Z,0.00
2019-01-19T06:09:18.666Z,0.00
2019-01-19T06:10:18.693Z,0.00
2019-01-19T06:11:18.667Z,0.00
2019-01-19T06:12:18.611Z,0.00
2019-01-19T06:13:18.599Z,0.00
2019-01-19T06:14:18.590Z,0.00
2019-01-19T06:15:18.622Z,0.00
2019-01-19T06:16:18.594Z,0.00
2019-01-19T06:17:18.640Z,0.00
2019-01-19T06:18:18.617Z,0.00
2019-01-19T06:19:18.570Z,0.00
2019-01-19T06:20:18.602Z,0.00
2019-01-19T06:21:18.601Z,0.00
2019-01-19T06:22:18.546Z,0.00
2019-01-19T06:23:18.526Z,0.00
2019-01-19T06:24:18.515Z,0.00
2019-01-19T06:25:18.510Z,0.00
2019-01-19T06:26:18.563Z,0.00
2019-01-19T06:27:18.484Z,0.00
2019-01-19T06:28:18.445Z,0.00
2019-01-19T06:29:18.433Z,0.00
2019-01-19T06:30:18.415Z,0.00
2019-01-19T06:31:18.430Z,0.00
2019-01-19T06:32:18.405Z,0.00
2019-01-19T06:33:18.395Z,0.00
2019-01-19T06:34:18.377Z,0.00
2019-01-19T06:35:18.359Z,0.00
2019-01-19T06:36:18.385Z,0.00
2019-01-19T06:37:18.338Z,0.00
2019-01-19T06:38:18.332Z,0.00
2019-01-19T06:39:18.325Z,0.00
2019-01-19T06:40:18.321Z,0.00
2019-01-19T06:41:18.319Z,0.00
2019-01-19T06:42:18.281Z,0.00
2019-01-19T06:43:18.270Z,0.00
2019-01-19T06:44:18.278Z,0.00
2019-01-19T06:45:18.260Z,0.00
2019-01-19T06:46:18.265Z,0.00
2019-01-19T06:47:18.241Z,0.00
2019-01-19T06:48:18.221Z,0.00
2019-01-19T06:49:18.219Z,0.00
2019-01-19T06:50:18.198Z,0.00
2019-01-19T06:51:19.624Z,0.00
2019-01-19T06:52:18.175Z,0.00
2019-01-19T06:53:18.164Z,0.00
2019-01-19T06:54:18.170Z,4.00
2019-01-19T06:55:18.149Z,4.00
2019-01-19T06:56:18.219Z,4.00
2019-01-19T06:57:18.118Z,0.00
2019-01-19T06:58:18.179Z,4.00
2019-01-19T06:59:18.136Z,4.00
2019-01-19T07:00:18.085Z,4.00
2019-01-19T07:01:18.131Z,8.00
2019-01-19T07:02:18.063Z,4.00
2019-01-19T07:03:18.052Z,4.00
2019-01-19T07:04:18.040Z,8.00
2019-01-19T07:05:18.034Z,8.00
2019-01-19T07:06:18.025Z,12.00
2019-01-19T07:07:18.018Z,12.00
2019-01-19T07:08:17.998Z,12.00
2019-01-19T07:09:17.989Z,16.00
2019-01-19T07:10:17.971Z,16.00
2019-01-19T07:11:18.009Z,20.00
2019-01-19T07:12:17.955Z,20.00
2019-01-19T07:13:17.943Z,24.00
2019-01-19T07:14:18.039Z,28.00
2019-01-19T07:15:17.920Z,32.00
2019-01-19T07:16:17.904Z,36.00
2019-01-19T07:17:18.003Z,40.00
2019-01-19T07:18:17.913Z,44.00
2019-01-19T07:19:17.911Z,52.00
2019-01-19T07:20:17.894Z,56.00
2019-01-19T07:21:17.880Z,64.00
2019-01-19T07:22:17.943Z,68.00
2019-01-19T07:23:17.870Z,76.00
2019-01-19T07:24:17.853Z,84.00
2019-01-19T07:25:17.837Z,92.00
2019-01-19T07:26:17.830Z,100.00
2019-01-19T07:27:17.878Z,112.00
2019-01-19T07:28:17.774Z,120.00
2019-01-19T07:29:17.760Z,132.00
2019-01-19T07:30:17.754Z,140.00
2019-01-19T07:31:17.747Z,148.00
2019-01-19T07:32:17.768Z,160.00
2019-01-19T07:33:17.717Z,172.00
2019-01-19T07:34:17.738Z,184.00
2019-01-19T07:35:17.696Z,200.00
2019-01-19T07:36:17.687Z,216.00
2019-01-19T07:37:19.693Z,236.00
2019-01-19T07:38:17.673Z,260.00
2019-01-19T07:39:17.659Z,284.00
2019-01-19T07:40:17.650Z,308.00
2019-01-19T07:41:17.630Z,328.00
2019-01-19T07:42:17.642Z,352.00
2019-01-19T07:43:17.612Z,376.00
2019-01-19T07:44:17.596Z,392.00
2019-01-19T07:45:17.589Z,404.00
2019-01-19T07:46:19.141Z,444.00
2019-01-19T07:47:17.603Z,476.00
2019-01-19T07:48:17.552Z,508.00
2019-01-19T07:49:17.549Z,500.00
2019-01-19T07:50:17.535Z,444.00
2019-01-19T07:51:17.523Z,424.00
2019-01-19T07:52:17.557Z,432.00
2019-01-19T07:53:17.514Z,448.00
2019-01-19T07:54:17.484Z,496.00
2019-01-19T07:55:17.540Z,552.00
2019-01-19T07:56:17.473Z,616.00
2019-01-19T07:57:17.535Z,712.00
2019-01-19T07:58:27.444Z,768.00
2019-01-19T07:59:17.432Z,720.00
2019-01-19T08:00:17.421Z,680.00
2019-01-19T08:01:17.405Z,648.00
2019-01-19T08:02:17.444Z,664.00
2019-01-19T08:03:17.384Z,700.00
2019-01-19T08:04:18.588Z,720.00
2019-01-19T08:05:17.373Z,732.00
2019-01-19T08:06:17.348Z,752.00
2019-01-19T08:07:17.607Z,804.00
2019-01-19T08:08:17.329Z,844.00
2019-01-19T08:09:17.645Z,884.00
2019-01-19T08:10:17.536Z,976.00
2019-01-19T08:11:17.298Z,1016.00
2019-01-19T08:12:17.316Z,1052.00
2019-01-19T08:13:17.291Z,1180.00
2019-01-19T08:14:17.267Z,1324.00
2019-01-19T08:15:17.302Z,1328.00
2019-01-19T08:16:17.250Z,1348.00
2019-01-19T08:17:17.370Z,1328.00
2019-01-19T08:18:18.852Z,1260.00
2019-01-19T08:19:17.238Z,1284.00
2019-01-19T08:20:17.292Z,1232.00
2019-01-19T08:21:17.216Z,1236.00
2019-01-19T08:22:17.283Z,1268.00
2019-01-19T08:23:17.196Z,1364.00
2019-01-19T08:24:17.192Z,1392.00
2019-01-19T08:25:17.184Z,1356.00
2019-01-19T08:26:17.170Z,1408.00
2019-01-19T08:27:17.250Z,1408.00
2019-01-19T08:28:17.298Z,1392.00
2019-01-19T08:29:18.389Z,1332.00
2019-01-19T08:30:17.088Z,1264.00
2019-01-19T08:31:17.082Z,1220.00
2019-01-19T08:32:17.119Z,1216.00
2019-01-19T08:33:17.086Z,1220.00
2019-01-19T08:34:17.052Z,1300.00
2019-01-19T08:35:17.031Z,1372.00
2019-01-19T08:36:17.020Z,1396.00
2019-01-19T08:37:24.219Z,1480.00
2019-01-19T08:38:17.000Z,1552.00
2019-01-19T08:39:16.985Z,1640.00
2019-01-19T08:40:16.993Z,1736.00
2019-01-19T08:41:16.972Z,1868.00
2019-01-19T08:42:16.971Z,1936.00
2019-01-19T08:43:16.977Z,1944.00
2019-01-19T08:44:16.937Z,1944.00
2019-01-19T08:45:16.922Z,1964.00
2019-01-19T08:46:16.911Z,1972.00
2019-01-19T08:47:16.946Z,1996.00
2019-01-19T08:48:16.941Z,2000.00
2019-01-19T08:49:16.890Z,2004.00
2019-01-19T08:50:16.859Z,2028.00
2019-01-19T08:51:16.872Z,2048.00
2019-01-19T08:52:16.850Z,2048.00
2019-01-19T08:53:17.123Z,2056.00
2019-01-19T08:54:16.827Z,2072.00
2019-01-19T08:55:16.819Z,2084.00
2019-01-19T08:56:16.797Z,2100.00
2019-01-19T08:57:16.784Z,2096.00
2019-01-19T08:58:16.819Z,2116.00
2019-01-19T08:59:16.778Z,2132.00
2019-01-19T09:00:16.762Z,2140.00
2019-01-19T09:01:16.743Z,2148.00
2019-01-19T09:02:16.767Z,2152.00
2019-01-19T09:03:16.751Z,2156.00
2019-01-19T09:04:16.727Z,2164.00
2019-01-19T09:05:16.699Z,2148.00
2019-01-19T09:06:16.738Z,2120.00
2019-01-19T09:07:16.678Z,2052.00
2019-01-19T09:08:16.705Z,2028.00
2019-01-19T09:09:16.724Z,2048.00
2019-01-19T09:10:16.651Z,2024.00
2019-01-19T09:11:16.637Z,1856.00
2019-01-19T09:12:16.662Z,1556.00
2019-01-19T09:13:16.650Z,1444.00
2019-01-19T09:14:16.617Z,1480.00
2019-01-19T09:15:16.596Z,1592.00
2019-01-19T09:16:16.610Z,1640.00
2019-01-19T09:17:16.776Z,1556.00
2019-01-19T09:18:18.042Z,1460.00
2019-01-19T09:19:16.597Z,1480.00
2019-01-19T09:20:16.559Z,1456.00
2019-01-19T09:21:16.564Z,1428.00
2019-01-19T09:22:16.553Z,1500.00
2019-01-19T09:23:16.808Z,1540.00
2019-01-19T09:24:16.577Z,1532.00
2019-01-19T09:25:16.512Z,1472.00
2019-01-19T09:26:16.501Z,1272.00
2019-01-19T09:27:16.493Z,1152.00
2019-01-19T09:28:16.480Z,1124.00
2019-01-19T09:29:16.444Z,1120.00
2019-01-19T09:30:16.433Z,1120.00
2019-01-19T09:31:16.416Z,1128.00
2019-01-19T09:32:16.422Z,1132.00
2019-01-19T09:33:16.475Z,1156.00
2019-01-19T09:34:16.452Z,1208.00
2019-01-19T09:35:16.420Z,1288.00
2019-01-19T09:36:16.358Z,1380.00
2019-01-19T09:37:16.350Z,1432.00
2019-01-19T09:38:16.404Z,1432.00
2019-01-19T09:39:16.334Z,1404.00
2019-01-19T09:40:16.325Z,1400.00
2019-01-19T09:41:16.311Z,1412.00
2019-01-19T09:42:16.298Z,1412.00
2019-01-19T09:43:16.320Z,1432.00
2019-01-19T09:44:16.299Z,1468.00
2019-01-19T09:45:16.265Z,1508.00
2019-01-19T09:46:16.253Z,1564.00
2019-01-19T09:47:17.639Z,1648.00
2019-01-19T09:48:16.329Z,1860.00
2019-01-19T09:49:16.222Z,2080.00
2019-01-19T09:50:16.285Z,2160.00
2019-01-19T09:51:16.197Z,2176.00
2019-01-19T09:52:21.151Z,2156.00
2019-01-19T09:53:16.202Z,2192.00
2019-01-19T09:54:16.166Z,2268.00
2019-01-19T09:55:16.149Z,2332.00
2019-01-19T09:56:16.147Z,2328.00
2019-01-19T09:57:16.137Z,2428.00
2019-01-19T09:58:16.148Z,2500.00
2019-01-19T09:59:16.155Z,2548.00
2019-01-19T10:00:16.096Z,2720.00
2019-01-19T10:01:16.083Z,2824.00
2019-01-19T10:02:16.072Z,2864.00
2019-01-19T10:03:16.089Z,2836.00
2019-01-19T10:04:16.062Z,2708.00
2019-01-19T10:05:16.107Z,2776.00
2019-01-19T10:06:16.045Z,2916.00
2019-01-19T10:07:16.033Z,2992.00
2019-01-19T10:08:16.219Z,3012.00
2019-01-19T10:09:16.028Z,3008.00
2019-01-19T10:10:15.998Z,2976.00
2019-01-19T10:11:15.991Z,2964.00
2019-01-19T10:12:15.973Z,2964.00
2019-01-19T10:13:17.213Z,2980.00
2019-01-19T10:14:15.961Z,2888.00
2019-01-19T10:15:15.938Z,2936.00
2019-01-19T10:16:15.942Z,2976.00
2019-01-19T10:17:15.955Z,2976.00
2019-01-19T10:18:15.947Z,2984.00
2019-01-19T10:19:15.977Z,2992.00
2019-01-19T10:20:15.922Z,2984.00
2019-01-19T10:21:15.910Z,2984.00
2019-01-19T10:22:15.902Z,3028.00
2019-01-19T10:23:15.885Z,3072.00
2019-01-19T10:24:15.876Z,3096.00
2019-01-19T10:25:15.864Z,3104.00
2019-01-19T10:26:15.859Z,3112.00
2019-01-19T10:27:15.857Z,3116.00
2019-01-19T10:28:15.804Z,3124.00
2019-01-19T10:29:15.791Z,3132.00
2019-01-19T10:30:15.780Z,3132.00
2019-01-19T10:31:15.768Z,3140.00
2019-01-19T10:32:15.751Z,3164.00
2019-01-19T10:33:15.803Z,3196.00
2019-01-19T10:34:15.833Z,3224.00
2019-01-19T10:35:15.713Z,3224.00
2019-01-19T10:36:15.757Z,3140.00
2019-01-19T10:37:15.693Z,3056.00
2019-01-19T10:38:15.739Z,3252.00
2019-01-19T10:39:15.698Z,3352.00
2019-01-19T10:40:16.255Z,3424.00
2019-01-19T10:41:15.650Z,3496.00
2019-01-19T10:42:15.649Z,3580.00
2019-01-19T10:43:15.632Z,3732.00
2019-01-19T10:44:15.668Z,4232.00
2019-01-19T10:45:15.613Z,6888.00
2019-01-19T10:46:15.597Z,10784.00
2019-01-19T10:47:15.604Z,14800.00
2019-01-19T10:48:15.568Z,18272.00
2019-01-19T10:49:15.598Z,20256.00
2019-01-19T10:50:15.591Z,20000.00
2019-01-19T10:51:15.547Z,20000.00
2019-01-19T10:52:15.528Z,20416.00
2019-01-19T10:53:15.520Z,20832.00
2019-01-19T10:54:15.554Z,21376.00
2019-01-19T10:55:15.505Z,21888.00
2019-01-19T10:56:15.485Z,22144.00
2019-01-19T10:57:15.477Z,22080.00
2019-01-19T10:58:15.464Z,22080.00
2019-01-19T10:59:15.539Z,21504.00
2019-01-19T11:00:15.455Z,21120.00
2019-01-19T11:01:15.434Z,21952.00
2019-01-19T11:02:15.433Z,22208.00
2019-01-19T11:03:15.411Z,21728.00
2019-01-19T11:04:15.442Z,20928.00
2019-01-19T11:05:15.514Z,20736.00
2019-01-19T11:06:15.378Z,19744.00
2019-01-19T11:07:15.480Z,19104.00
2019-01-19T11:08:15.355Z,20160.00
2019-01-19T11:09:15.510Z,21408.00
2019-01-19T11:10:15.454Z,21952.00
2019-01-19T11:11:15.368Z,22144.00
2019-01-19T11:12:15.317Z,22272.00
2019-01-19T11:13:15.343Z,22720.00
2019-01-19T11:14:15.330Z,23072.00
2019-01-19T11:15:15.282Z,22112.00
2019-01-19T11:16:15.364Z,20800.00
2019-01-19T11:17:15.306Z,19840.00
2019-01-19T11:18:15.289Z,22624.00
2019-01-19T11:19:15.337Z,23392.00
2019-01-19T11:20:15.261Z,23072.00
2019-01-19T11:21:15.248Z,22784.00
2019-01-19T11:22:15.248Z,22560.00
2019-01-19T11:23:15.228Z,22656.00
2019-01-19T11:24:15.282Z,22368.00
2019-01-19T11:25:15.203Z,21920.00
2019-01-19T11:26:15.359Z,22048.00
2019-01-19T11:27:15.184Z,21920.00
2019-01-19T11:28:15.151Z,22112.00
2019-01-19T11:29:15.156Z,21312.00
2019-01-19T11:30:15.120Z,19296.00
2019-01-19T11:31:15.105Z,18080.00
2019-01-19T11:32:15.129Z,16992.00
2019-01-19T11:33:15.116Z,16452.00
2019-01-19T11:34:15.107Z,15508.00
2019-01-19T11:35:15.069Z,14888.00
2019-01-19T11:36:15.268Z,14012.00
2019-01-19T11:37:15.043Z,12900.00
2019-01-19T11:38:20.054Z,11716.00
2019-01-19T11:39:15.145Z,10520.00
2019-01-19T11:40:15.012Z,9520.00
2019-01-19T11:41:15.003Z,8616.00
2019-01-19T11:42:14.999Z,7948.00
2019-01-19T11:43:14.997Z,7296.00
2019-01-19T11:44:14.992Z,6628.00
2019-01-19T11:45:14.974Z,6396.00
2019-01-19T11:46:14.948Z,6232.00
2019-01-19T11:47:14.937Z,6048.00
2019-01-19T11:48:14.923Z,5972.00
2019-01-19T11:49:14.939Z,5892.00
2019-01-19T11:50:14.953Z,5904.00
2019-01-19T11:51:14.906Z,5820.00
2019-01-19T11:52:14.890Z,5704.00
2019-01-19T11:53:14.870Z,5616.00
2019-01-19T11:54:14.912Z,5780.00
2019-01-19T11:55:14.855Z,5788.00
2019-01-19T11:56:14.840Z,5672.00
2019-01-19T11:57:14.840Z,5568.00
2019-01-19T11:58:14.813Z,5528.00
2019-01-19T11:59:14.878Z,5540.00
2019-01-19T12:00:14.817Z,5540.00
2019-01-19T12:01:14.779Z,5500.00
2019-01-19T12:02:14.766Z,5364.00
2019-01-19T12:03:14.774Z,5248.00
2019-01-19T12:04:14.776Z,5220.00
2019-01-19T12:05:14.740Z,5120.00
2019-01-19T12:06:14.735Z,5116.00
2019-01-19T12:07:14.712Z,5108.00
2019-01-19T12:08:19.388Z,5064.00
2019-01-19T12:09:14.690Z,5040.00
2019-01-19T12:10:14.712Z,4988.00
2019-01-19T12:11:14.753Z,4948.00
2019-01-19T12:12:14.670Z,4920.00
2019-01-19T12:13:14.670Z,4828.00
2019-01-19T12:14:14.639Z,4748.00
2019-01-19T12:15:14.653Z,4700.00
2019-01-19T12:16:14.620Z,4604.00
2019-01-19T12:17:14.643Z,4500.00
2019-01-19T12:18:14.633Z,4336.00
2019-01-19T12:19:14.666Z,3732.00
2019-01-19T12:20:14.667Z,2756.00
2019-01-19T12:21:14.618Z,2164.00
2019-01-19T12:22:14.584Z,1956.00
2019-01-19T12:23:14.610Z,1880.00
2019-01-19T12:24:14.559Z,1848.00
2019-01-19T12:25:14.606Z,1828.00
2019-01-19T12:26:14.534Z,1820.00
2019-01-19T12:27:14.547Z,1808.00
2019-01-19T12:28:14.484Z,1836.00
2019-01-19T12:29:14.475Z,1988.00
2019-01-19T12:30:14.499Z,2504.00
2019-01-19T12:31:14.461Z,2512.00
2019-01-19T12:32:14.443Z,2060.00
2019-01-19T12:33:14.431Z,1748.00
2019-01-19T12:34:14.442Z,1684.00
2019-01-19T12:35:14.488Z,1612.00
2019-01-19T12:36:14.436Z,1524.00
2019-01-19T12:37:14.392Z,1440.00
2019-01-19T12:38:14.392Z,1328.00
2019-01-19T12:39:14.376Z,1316.00
2019-01-19T12:40:15.827Z,1348.00
2019-01-19T12:41:14.363Z,1332.00
2019-01-19T12:42:14.330Z,1304.00
2019-01-19T12:43:14.323Z,1284.00
2019-01-19T12:44:14.308Z,1244.00
2019-01-19T12:45:14.332Z,1216.00